createdAt,value
2018-10-16T00:01:05.756Z,1011.45
2018-10-16T00:02:15.696Z,1011.47
2018-10-16T00:03:25.642Z,1011.46
2018-10-16T00:04:35.341Z,1011.42
2018-10-16T00:05:45.285Z,1011.46
2018-10-16T00:06:55.285Z,1011.42
2018-10-16T00:08:05.226Z,1011.44
2018-10-16T00:09:15.181Z,1011.47
2018-10-16T00:10:24.863Z,1011.49
2018-10-16T00:11:34.568Z,1011.43
2018-10-16T00:12:44.543Z,1011.41
2018-10-16T00:13:54.505Z,1011.48
2018-10-16T00:15:04.457Z,1011.5
2018-10-16T00:16:14.417Z,1011.47
2018-10-16T00:17:24.128Z,1011.54
2018-10-16T00:18:34.069Z,1011.5
2018-10-16T00:19:43.763Z,1011.56
2018-10-16T00:20:53.463Z,1011.53
2018-10-16T00:22:02.907Z,1011.56
2018-10-16T00:23:12.598Z,1011.59
2018-10-16T00:24:22.547Z,1011.59
2018-10-16T00:25:32.495Z,1011.6
2018-10-16T00:26:42.453Z,1011.61
2018-10-16T00:27:52.401Z,1011.62
2018-10-16T00:29:02.356Z,1011.59
2018-10-16T00:30:12.053Z,1011.6
2018-10-16T00:31:21.754Z,1011.54
2018-10-16T00:32:31.734Z,1011.54
2018-10-16T00:33:41.801Z,1011.57
2018-10-16T00:34:51.759Z,1011.56
2018-10-16T00:36:01.444Z,1011.57
2018-10-16T00:37:11.142Z,1011.55
2018-10-16T00:38:20.836Z,1011.56
2018-10-16T00:39:30.799Z,1011.55
2018-10-16T00:40:40.489Z,1011.58
2018-10-16T00:41:50.426Z,1011.51
2018-10-16T00:42:59.875Z,1011.52
2018-10-16T00:44:09.836Z,1011.55
2018-10-16T00:45:19.535Z,1011.56
2018-10-16T00:46:29.512Z,1011.5
2018-10-16T00:47:39.462Z,1011.52
2018-10-16T00:48:49.433Z,1011.52
2018-10-16T00:49:58.866Z,1011.49
2018-10-16T00:51:08.834Z,1011.53
2018-10-16T00:52:18.535Z,1011.56
2018-10-16T00:53:28.491Z,1011.58
2018-10-16T00:54:38.445Z,1011.62
2018-10-16T00:55:47.961Z,1011.63
2018-10-16T00:56:57.965Z,1011.63
2018-10-16T00:58:07.942Z,1011.65
2018-10-16T00:59:17.889Z,1011.6
2018-10-16T01:00:27.846Z,1011.58
2018-10-16T01:01:37.819Z,1011.59
2018-10-16T01:02:47.251Z,1011.59
2018-10-16T01:03:56.947Z,1011.59
2018-10-16T01:05:06.894Z,1011.58
2018-10-16T01:06:16.862Z,1011.57
2018-10-16T01:07:26.558Z,1011.58
2018-10-16T01:08:36.497Z,1011.61
2018-10-16T01:09:46.442Z,1011.59
2018-10-16T01:10:56.405Z,1011.64
2018-10-16T01:12:06.362Z,1011.6
2018-10-16T01:13:16.150Z,1011.61
2018-10-16T01:14:26.198Z,1011.62
2018-10-16T01:15:36.158Z,1011.58
2018-10-16T01:16:46.117Z,1011.61
2018-10-16T01:17:55.797Z,1011.57
2018-10-16T01:19:05.729Z,1011.61
2018-10-16T01:20:15.424Z,1011.58
2018-10-16T01:21:25.105Z,1011.62
2018-10-16T01:22:35.064Z,1011.64
2018-10-16T01:23:44.755Z,1011.66
2018-10-16T01:24:54.478Z,1011.62
2018-10-16T01:26:04.436Z,1011.6
2018-10-16T01:27:14.387Z,1011.57
2018-10-16T01:28:24.331Z,1011.61
2018-10-16T01:29:33.773Z,1011.56
2018-10-16T01:30:43.467Z,1011.57
2018-10-16T01:31:53.151Z,1011.51
2018-10-16T01:33:03.102Z,1011.51
2018-10-16T01:34:12.534Z,1011.46
2018-10-16T01:35:22.529Z,1011.49
2018-10-16T01:36:32.211Z,1011.46
2018-10-16T01:37:41.917Z,1011.49
2018-10-16T01:38:51.873Z,1011.49
2018-10-16T01:40:01.822Z,1011.49
2018-10-16T01:41:11.786Z,1011.52
2018-10-16T01:42:21.744Z,1011.52
2018-10-16T01:43:31.696Z,1011.52
2018-10-16T01:44:41.655Z,1011.54
2018-10-16T01:45:51.362Z,1011.53
2018-10-16T01:47:01.054Z,1011.56
2018-10-16T01:48:10.996Z,1011.57
2018-10-16T01:49:20.960Z,1011.62
2018-10-16T01:50:30.665Z,1011.6
2018-10-16T01:51:40.619Z,1011.63
2018-10-16T01:52:50.553Z,1011.64
2018-10-16T01:54:00.504Z,1011.6
2018-10-16T01:55:10.447Z,1011.62
2018-10-16T01:56:20.116Z,1011.61
2018-10-16T01:57:30.084Z,1011.66
2018-10-16T01:58:40.021Z,1011.69
2018-10-16T01:59:49.702Z,1011.69
2018-10-16T02:00:59.644Z,1011.71
2018-10-16T02:02:09.626Z,1011.72
2018-10-16T02:03:19.582Z,1011.74
2018-10-16T02:04:29.758Z,1011.74
2018-10-16T02:05:39.755Z,1011.76
2018-10-16T02:06:49.741Z,1011.75
2018-10-16T02:07:59.179Z,1011.73
2018-10-16T02:09:08.608Z,1011.71
2018-10-16T02:10:18.300Z,1011.65
2018-10-16T02:11:28.264Z,1011.7
2018-10-16T02:12:38.219Z,1011.64
2018-10-16T02:13:48.160Z,1011.62
2018-10-16T02:14:58.120Z,1011.63
2018-10-16T02:16:08.065Z,1011.61
2018-10-16T02:17:18.016Z,1011.62
2018-10-16T02:18:27.961Z,1011.58
2018-10-16T02:19:37.911Z,1011.61
2018-10-16T02:20:47.347Z,1011.62
2018-10-16T02:21:57.299Z,1011.62
2018-10-16T02:23:07.247Z,1011.62
2018-10-16T02:24:16.932Z,1011.65
2018-10-16T02:25:26.369Z,1011.61
2018-10-16T02:26:36.061Z,1011.62
2018-10-16T02:27:46.004Z,1011.61
2018-10-16T02:28:55.696Z,1011.61
2018-10-16T02:30:05.386Z,1011.64
2018-10-16T02:31:15.072Z,1011.62
2018-10-16T02:32:24.509Z,1011.67
2018-10-16T02:33:34.475Z,1011.68
2018-10-16T02:34:44.451Z,1011.69
2018-10-16T02:35:54.409Z,1011.68
2018-10-16T02:37:04.363Z,1011.67
2018-10-16T02:38:14.315Z,1011.69
2018-10-16T02:39:24.026Z,1011.74
2018-10-16T02:40:33.722Z,1011.72
2018-10-16T02:41:43.419Z,1011.69
2018-10-16T02:42:53.378Z,1011.75
2018-10-16T02:44:03.316Z,1011.73
2018-10-16T02:45:13.269Z,1011.71
2018-10-16T02:46:22.702Z,1011.72
2018-10-16T02:47:32.654Z,1011.73
2018-10-16T02:48:42.603Z,1011.68
2018-10-16T02:49:52.562Z,1011.69
2018-10-16T02:51:02.531Z,1011.65
2018-10-16T02:52:12.495Z,1011.61
2018-10-16T02:53:22.210Z,1011.61
2018-10-16T02:54:31.901Z,1011.56
2018-10-16T02:55:41.343Z,1011.61
2018-10-16T02:56:51.300Z,1011.64
2018-10-16T02:58:01.245Z,1011.61
2018-10-16T02:59:11.267Z,1011.6
2018-10-16T03:00:20.961Z,1011.58
2018-10-16T03:01:30.907Z,1011.58
2018-10-16T03:02:40.876Z,1011.64
2018-10-16T03:03:50.840Z,1011.63
2018-10-16T03:05:00.785Z,1011.7
2018-10-16T03:06:10.745Z,1011.76
2018-10-16T03:07:20.702Z,1011.79
2018-10-16T03:08:30.654Z,1011.8
2018-10-16T03:09:40.634Z,1011.79
2018-10-16T03:10:50.625Z,1011.79
2018-10-16T03:12:00.318Z,1011.75
2018-10-16T03:13:10.259Z,1011.76
2018-10-16T03:14:19.950Z,1011.74
2018-10-16T03:15:29.667Z,1011.71
2018-10-16T03:16:39.623Z,1011.73
2018-10-16T03:17:49.325Z,1011.76
2018-10-16T03:18:59.068Z,1011.75
2018-10-16T03:20:09.020Z,1011.75
2018-10-16T03:21:18.849Z,1011.76
2018-10-16T03:22:28.811Z,1011.77
2018-10-16T03:23:38.782Z,1011.79
2018-10-16T03:24:48.214Z,1011.77
2018-10-16T03:25:58.163Z,1011.76
2018-10-16T03:27:08.114Z,1011.71
2018-10-16T03:28:17.804Z,1011.68
2018-10-16T03:29:27.752Z,1011.69
2018-10-16T03:30:37.187Z,1011.65
2018-10-16T03:31:47.169Z,1011.63
2018-10-16T03:32:56.878Z,1011.68
2018-10-16T03:34:06.823Z,1011.69
2018-10-16T03:35:16.768Z,1011.74
2018-10-16T03:36:26.473Z,1011.72
2018-10-16T03:37:36.416Z,1011.74
2018-10-16T03:38:46.145Z,1011.73
2018-10-16T03:39:55.843Z,1011.7
2018-10-16T03:41:05.276Z,1011.74
2018-10-16T03:42:15.236Z,1011.7
2018-10-16T03:43:25.200Z,1011.72
2018-10-16T03:44:35.155Z,1011.74
2018-10-16T03:45:44.847Z,1011.73
2018-10-16T03:46:54.793Z,1011.74
2018-10-16T03:48:04.758Z,1011.75
2018-10-16T03:49:14.724Z,1011.78
2018-10-16T03:50:24.415Z,1011.77
2018-10-16T03:51:34.422Z,1011.82
2018-10-16T03:52:44.118Z,1011.82
2018-10-16T03:53:54.124Z,1011.81
2018-10-16T03:55:04.070Z,1011.78
2018-10-16T03:56:14.033Z,1011.76
2018-10-16T03:57:24.021Z,1011.74
2018-10-16T03:58:34.042Z,1011.78
2018-10-16T03:59:43.735Z,1011.76
2018-10-16T04:00:53.698Z,1011.74
2018-10-16T04:02:03.660Z,1011.76
2018-10-16T04:03:13.358Z,1011.76
2018-10-16T04:04:23.070Z,1011.78
2018-10-16T04:05:33.016Z,1011.83
2018-10-16T04:06:42.985Z,1011.9
2018-10-16T04:07:53.495Z,1011.96
2018-10-16T04:09:03.190Z,1011.96
2018-10-16T04:10:13.160Z,1012
2018-10-16T04:11:23.096Z,1011.95
2018-10-16T04:12:33.057Z,1011.93
2018-10-16T04:13:43.001Z,1011.93
2018-10-16T04:14:52.943Z,1011.91
2018-10-16T04:16:02.900Z,1011.94
2018-10-16T04:17:12.850Z,1011.88
2018-10-16T04:18:22.797Z,1011.84
2018-10-16T04:19:32.735Z,1011.88
2018-10-16T04:20:42.684Z,1011.86
2018-10-16T04:21:52.656Z,1011.9
2018-10-16T04:23:02.716Z,1011.88
2018-10-16T04:24:12.319Z,1011.87
2018-10-16T04:25:22.264Z,1011.91
2018-10-16T04:26:31.707Z,1011.94
2018-10-16T04:27:41.646Z,1011.88
2018-10-16T04:28:51.607Z,1011.89
2018-10-16T04:30:01.395Z,1011.85
2018-10-16T04:31:11.089Z,1011.86
2018-10-16T04:32:21.028Z,1011.88
2018-10-16T04:33:30.729Z,1011.84
2018-10-16T04:34:40.668Z,1011.84
2018-10-16T04:35:50.334Z,1011.9
2018-10-16T04:37:00.034Z,1011.86
2018-10-16T04:38:09.986Z,1011.85
2018-10-16T04:39:19.952Z,1011.88
2018-10-16T04:40:29.895Z,1011.91
2018-10-16T04:41:40.020Z,1011.9
2018-10-16T04:42:50.048Z,1011.87
2018-10-16T04:44:00.062Z,1011.94
2018-10-16T04:45:10.027Z,1011.94
2018-10-16T04:46:20.010Z,1011.94
2018-10-16T04:47:29.976Z,1011.98
2018-10-16T04:48:39.449Z,1012.03
2018-10-16T04:49:49.415Z,1012.02
2018-10-16T04:50:59.339Z,1011.98
2018-10-16T04:52:08.537Z,1012.01
2018-10-16T04:53:18.297Z,1012
2018-10-16T04:54:28.271Z,1012.03
2018-10-16T04:55:38.221Z,1012.03
2018-10-16T04:56:47.932Z,1012.07
2018-10-16T04:57:57.890Z,1012.07
2018-10-16T04:59:07.583Z,1012.07
2018-10-16T05:00:17.282Z,1012.09
2018-10-16T05:01:27.260Z,1012.13
2018-10-16T05:02:37.264Z,1012.17
2018-10-16T05:03:46.959Z,1012.15
2018-10-16T05:04:56.794Z,1012.17
2018-10-16T05:06:06.780Z,1012.2
2018-10-16T05:07:16.750Z,1012.23
2018-10-16T05:08:26.717Z,1012.19
2018-10-16T05:09:36.414Z,1012.2
2018-10-16T05:10:46.110Z,1012.25
2018-10-16T05:11:56.062Z,1012.22
2018-10-16T05:13:06.091Z,1012.29
2018-10-16T05:14:16.157Z,1012.31
2018-10-16T05:15:25.845Z,1012.3
2018-10-16T05:16:35.542Z,1012.32
2018-10-16T05:17:45.510Z,1012.27
2018-10-16T05:18:55.484Z,1012.28
2018-10-16T05:20:05.821Z,1012.29
2018-10-16T05:21:16.364Z,1012.3
2018-10-16T05:22:26.061Z,1012.29
2018-10-16T05:23:36.025Z,1012.25
2018-10-16T05:24:45.981Z,1012.22
2018-10-16T05:25:55.685Z,1012.27
2018-10-16T05:27:05.672Z,1012.27
2018-10-16T05:28:15.757Z,1012.24
2018-10-16T05:29:25.712Z,1012.25
2018-10-16T05:30:35.689Z,1012.3
2018-10-16T05:31:45.389Z,1012.28
2018-10-16T05:32:55.083Z,1012.37
2018-10-16T05:34:04.796Z,1012.36
2018-10-16T05:35:14.767Z,1012.41
2018-10-16T05:36:24.715Z,1012.43
2018-10-16T05:37:34.398Z,1012.46
2018-10-16T05:38:44.371Z,1012.43
2018-10-16T05:39:54.323Z,1012.47
2018-10-16T05:41:04.269Z,1012.49
2018-10-16T05:42:13.957Z,1012.53
2018-10-16T05:43:23.668Z,1012.54
2018-10-16T05:44:33.609Z,1012.52
2018-10-16T05:45:43.044Z,1012.52
2018-10-16T05:46:52.732Z,1012.55
2018-10-16T05:48:02.700Z,1012.56
2018-10-16T05:49:12.645Z,1012.54
2018-10-16T05:50:22.596Z,1012.62
2018-10-16T05:51:32.287Z,1012.61
2018-10-16T05:52:41.996Z,1012.67
2018-10-16T05:53:52.097Z,1012.7
2018-10-16T05:55:02.038Z,1012.68
2018-10-16T05:56:11.517Z,1012.64
2018-10-16T05:57:21.471Z,1012.65
2018-10-16T05:58:30.925Z,1012.64
2018-10-16T05:59:40.637Z,1012.64
2018-10-16T06:00:50.601Z,1012.64
2018-10-16T06:02:00.571Z,1012.62
2018-10-16T06:03:10.267Z,1012.64
2018-10-16T06:04:20.218Z,1012.62
2018-10-16T06:05:30.304Z,1012.61
2018-10-16T06:06:40.796Z,1012.61
2018-10-16T06:07:50.502Z,1012.64
2018-10-16T06:09:00.193Z,1012.69
2018-10-16T06:10:10.213Z,1012.71
2018-10-16T06:11:20.178Z,1012.7
2018-10-16T06:12:30.145Z,1012.7
2018-10-16T06:13:39.889Z,1012.71
2018-10-16T06:14:49.847Z,1012.68
2018-10-16T06:15:59.573Z,1012.71
2018-10-16T06:17:09.492Z,1012.65
2018-10-16T06:18:19.214Z,1012.7
2018-10-16T06:19:29.167Z,1012.68
2018-10-16T06:20:38.878Z,1012.67
2018-10-16T06:21:48.842Z,1012.61
2018-10-16T06:22:58.801Z,1012.63
2018-10-16T06:24:08.762Z,1012.64
2018-10-16T06:25:18.898Z,1012.63
2018-10-16T06:26:28.907Z,1012.64
2018-10-16T06:27:38.732Z,1012.64
2018-10-16T06:28:49.155Z,1012.66
2018-10-16T06:29:59.112Z,1012.69
2018-10-16T06:31:08.919Z,1012.66
2018-10-16T06:32:18.886Z,1012.7
2018-10-16T06:33:28.688Z,1012.69
2018-10-16T06:34:38.471Z,1012.71
2018-10-16T06:35:47.652Z,1012.74
2018-10-16T06:36:57.336Z,1012.76
2018-10-16T06:38:07.303Z,1012.77
2018-10-16T06:39:17.268Z,1012.83
2018-10-16T06:40:27.243Z,1012.81
2018-10-16T06:41:37.709Z,1012.79
2018-10-16T06:42:48.306Z,1012.72
2018-10-16T06:43:58.117Z,1012.71
2018-10-16T06:45:08.183Z,1012.71
2018-10-16T06:46:18.209Z,1012.75
2018-10-16T06:47:28.539Z,1012.7
2018-10-16T06:48:39.299Z,1012.72
2018-10-16T06:49:51.656Z,1012.77
2018-10-16T06:51:01.638Z,1012.72
2018-10-16T06:52:11.610Z,1012.71
2018-10-16T06:53:21.609Z,1012.76
2018-10-16T06:54:32.108Z,1012.76
2018-10-16T06:55:42.338Z,1012.75
2018-10-16T06:56:52.299Z,1012.82
2018-10-16T06:58:02.255Z,1012.81
2018-10-16T06:59:12.232Z,1012.82
2018-10-16T07:00:22.276Z,1012.89
2018-10-16T07:01:32.466Z,1012.85
2018-10-16T07:02:42.150Z,1012.81
2018-10-16T07:03:51.840Z,1012.84
2018-10-16T07:05:01.532Z,1012.85
2018-10-16T07:06:11.273Z,1012.89
2018-10-16T07:07:21.260Z,1012.84
2018-10-16T07:08:31.273Z,1012.9
2018-10-16T07:09:41.223Z,1012.9
2018-10-16T07:10:50.919Z,1012.92
2018-10-16T07:12:00.632Z,1012.95
2018-10-16T07:13:10.356Z,1012.96
2018-10-16T07:14:20.305Z,1012.98
2018-10-16T07:15:30.017Z,1012.94
2018-10-16T07:16:39.992Z,1012.96
2018-10-16T07:17:49.970Z,1012.99
2018-10-16T07:18:59.992Z,1013.05
2018-10-16T07:20:09.949Z,1013.02
2018-10-16T07:21:19.984Z,1013.06
2018-10-16T07:22:30.194Z,1013.05
2018-10-16T07:23:40.195Z,1013.06
2018-10-16T07:24:50.048Z,1013.02
2018-10-16T07:26:00.018Z,1013.03
2018-10-16T07:27:09.973Z,1013.04
2018-10-16T07:28:19.687Z,1013.08
2018-10-16T07:29:29.630Z,1013.06
2018-10-16T07:30:39.326Z,1013.08
2018-10-16T07:31:49.526Z,1013.08
2018-10-16T07:32:59.241Z,1013.1
2018-10-16T07:34:09.204Z,1013.09
2018-10-16T07:35:18.651Z,1013.08
2018-10-16T07:36:28.617Z,1013.07
2018-10-16T07:37:38.857Z,1013.08
2018-10-16T07:38:49.163Z,1013.04
2018-10-16T07:39:59.727Z,1013.03
2018-10-16T07:41:09.428Z,1013.03
2018-10-16T07:42:19.568Z,1013.05
2018-10-16T07:43:29.009Z,1013.02
2018-10-16T07:44:38.697Z,1013.05
2018-10-16T07:45:48.419Z,1013.06
2018-10-16T07:46:58.127Z,1013.07
2018-10-16T07:48:08.206Z,1013.16
2018-10-16T07:49:18.323Z,1013.16
2018-10-16T07:50:28.295Z,1013.19
2018-10-16T07:51:38.282Z,1013.17
2018-10-16T07:52:47.984Z,1013.19
2018-10-16T07:53:57.759Z,1013.17
2018-10-16T07:55:07.790Z,1013.2
2018-10-16T07:56:17.508Z,1013.23
2018-10-16T07:57:27.234Z,1013.16
2018-10-16T07:58:36.964Z,1013.19
2018-10-16T07:59:46.938Z,1013.17
2018-10-16T08:00:56.939Z,1013.22
2018-10-16T08:02:06.919Z,1013.22
2018-10-16T08:03:16.911Z,1013.24
2018-10-16T08:04:26.905Z,1013.21
2018-10-16T08:05:36.895Z,1013.24
2018-10-16T08:06:46.873Z,1013.28
2018-10-16T08:07:56.870Z,1013.26
2018-10-16T08:09:07.076Z,1013.31
2018-10-16T08:10:17.059Z,1013.3
2018-10-16T08:11:27.134Z,1013.28
2018-10-16T08:12:37.636Z,1013.29
2018-10-16T08:13:47.629Z,1013.25
2018-10-16T08:14:57.331Z,1013.26
2018-10-16T08:16:07.032Z,1013.26
2018-10-16T08:17:16.828Z,1013.26
2018-10-16T08:18:27.344Z,1013.25
2018-10-16T08:19:36.809Z,1013.23
2018-10-16T08:20:46.806Z,1013.2
2018-10-16T08:21:56.813Z,1013.19
2018-10-16T08:23:06.795Z,1013.21
2018-10-16T08:24:16.514Z,1013.19
2018-10-16T08:25:26.220Z,1013.2
2018-10-16T08:26:36.220Z,1013.19
2018-10-16T08:27:45.727Z,1013.14
2018-10-16T08:28:55.502Z,1013.2
2018-10-16T08:30:05.623Z,1013.21
2018-10-16T08:31:15.555Z,1013.26
2018-10-16T08:32:25.528Z,1013.2
2018-10-16T08:33:35.495Z,1013.21
2018-10-16T08:34:45.480Z,1013.21
2018-10-16T08:35:55.320Z,1013.22
2018-10-16T08:37:05.242Z,1013.25
2018-10-16T08:38:15.220Z,1013.25
2018-10-16T08:39:24.979Z,1013.28
2018-10-16T08:40:34.378Z,1013.28
2018-10-16T08:41:43.826Z,1013.28
2018-10-16T08:42:54.388Z,1013.3
2018-10-16T08:44:04.104Z,1013.29
2018-10-16T08:45:14.105Z,1013.3
2018-10-16T08:46:23.852Z,1013.29
2018-10-16T08:47:33.624Z,1013.31
2018-10-16T08:48:43.658Z,1013.3
2018-10-16T08:49:53.640Z,1013.28
2018-10-16T08:51:03.618Z,1013.31
2018-10-16T08:52:13.595Z,1013.33
2018-10-16T08:53:23.569Z,1013.39
2018-10-16T08:54:33.557Z,1013.41
2018-10-16T08:55:43.581Z,1013.42
2018-10-16T08:56:53.559Z,1013.39
2018-10-16T08:58:03.325Z,1013.44
2018-10-16T08:59:12.779Z,1013.4
2018-10-16T09:00:22.528Z,1013.38
2018-10-16T09:01:32.536Z,1013.35
2018-10-16T09:02:42.511Z,1013.42
2018-10-16T09:03:52.226Z,1013.43
2018-10-16T09:05:01.952Z,1013.37
2018-10-16T09:06:11.930Z,1013.34
2018-10-16T09:07:21.648Z,1013.31
2018-10-16T09:08:31.633Z,1013.36
2018-10-16T09:09:41.389Z,1013.38
2018-10-16T09:10:51.403Z,1013.38
2018-10-16T09:12:01.379Z,1013.4
2018-10-16T09:13:11.387Z,1013.45
2018-10-16T09:14:21.625Z,1013.43
2018-10-16T09:15:32.034Z,1013.45
2018-10-16T09:16:42.025Z,1013.44
2018-10-16T09:17:51.455Z,1013.45
2018-10-16T09:19:01.157Z,1013.45
2018-10-16T09:20:11.137Z,1013.42
2018-10-16T09:21:20.845Z,1013.45
2018-10-16T09:22:31.036Z,1013.48
2018-10-16T09:23:40.738Z,1013.44
2018-10-16T09:24:50.761Z,1013.51
2018-10-16T09:26:01.062Z,1013.5
2018-10-16T09:27:11.019Z,1013.5
2018-10-16T09:28:21.001Z,1013.52
2018-10-16T09:29:30.724Z,1013.51
2018-10-16T09:30:40.744Z,1013.55
2018-10-16T09:31:51.276Z,1013.58
2018-10-16T09:33:01.231Z,1013.53
2018-10-16T09:34:11.238Z,1013.55
2018-10-16T09:35:21.383Z,1013.52
2018-10-16T09:36:31.091Z,1013.52
2018-10-16T09:37:40.848Z,1013.56
2018-10-16T09:38:51.727Z,1013.51
2018-10-16T09:40:01.439Z,1013.49
2018-10-16T09:41:11.148Z,1013.53
2018-10-16T09:42:21.128Z,1013.56
2018-10-16T09:43:31.096Z,1013.56
2018-10-16T09:44:40.803Z,1013.53
2018-10-16T09:45:50.516Z,1013.51
2018-10-16T09:47:00.504Z,1013.52
2018-10-16T09:48:10.701Z,1013.56
2018-10-16T09:49:20.414Z,1013.53
2018-10-16T09:50:30.497Z,1013.45
2018-10-16T09:51:40.464Z,1013.45
2018-10-16T09:52:49.694Z,1013.51
2018-10-16T09:53:59.399Z,1013.52
2018-10-16T09:55:09.394Z,1013.5
2018-10-16T09:56:19.362Z,1013.48
2018-10-16T09:57:29.327Z,1013.49
2018-10-16T09:58:39.036Z,1013.54
2018-10-16T09:59:49.017Z,1013.49
2018-10-16T10:00:58.870Z,1013.42
2018-10-16T10:02:09.273Z,1013.44
2018-10-16T10:03:19.242Z,1013.4
2018-10-16T10:04:28.973Z,1013.37
2018-10-16T10:05:38.937Z,1013.41
2018-10-16T10:06:48.912Z,1013.4
2018-10-16T10:07:58.904Z,1013.37
2018-10-16T10:09:08.590Z,1013.37
2018-10-16T10:10:18.274Z,1013.36
2018-10-16T10:11:27.685Z,1013.37
2018-10-16T10:12:37.361Z,1013.35
2018-10-16T10:13:47.039Z,1013.3
2018-10-16T10:14:56.957Z,1013.31
2018-10-16T10:16:06.627Z,1013.26
2018-10-16T10:17:16.047Z,1013.27
2018-10-16T10:18:25.460Z,1013.3
2018-10-16T10:19:35.379Z,1013.31
2018-10-16T10:20:44.801Z,1013.29
2018-10-16T10:21:54.477Z,1013.29
2018-10-16T10:23:04.473Z,1013.33
2018-10-16T10:24:14.282Z,1013.29
2018-10-16T10:25:24.282Z,1013.32
2018-10-16T10:26:33.461Z,1013.28
2018-10-16T10:27:42.860Z,1013.32
2018-10-16T10:28:52.312Z,1013.27
2018-10-16T10:30:02.022Z,1013.29
2018-10-16T10:31:11.940Z,1013.3
2018-10-16T10:32:21.592Z,1013.28
2018-10-16T10:33:31.267Z,1013.24
2018-10-16T10:34:41.211Z,1013.25
2018-10-16T10:35:51.137Z,1013.23
2018-10-16T10:37:01.088Z,1013.27
2018-10-16T10:38:11.097Z,1013.28
2018-10-16T10:39:20.808Z,1013.27
2018-10-16T10:40:30.771Z,1013.25
2018-10-16T10:41:41.090Z,1013.25
2018-10-16T10:42:50.805Z,1013.28
2018-10-16T10:44:00.778Z,1013.35
2018-10-16T10:45:10.507Z,1013.3
2018-10-16T10:46:20.519Z,1013.29
2018-10-16T10:47:30.242Z,1013.3
2018-10-16T10:48:39.946Z,1013.3
2018-10-16T10:49:49.946Z,1013.28
2018-10-16T10:51:00.326Z,1013.28
2018-10-16T10:52:12.653Z,1013.28
2018-10-16T10:53:22.110Z,1013.23
2018-10-16T10:54:32.102Z,1013.23
2018-10-16T10:55:41.813Z,1013.26
2018-10-16T10:56:51.644Z,1013.25
2018-10-16T10:58:02.330Z,1013.24
2018-10-16T10:59:11.945Z,1013.27
2018-10-16T11:00:21.975Z,1013.27
2018-10-16T11:01:31.956Z,1013.29
2018-10-16T11:02:41.921Z,1013.28
2018-10-16T11:03:51.905Z,1013.32
2018-10-16T11:05:01.881Z,1013.29
2018-10-16T11:06:11.841Z,1013.27
2018-10-16T11:07:21.820Z,1013.28
2018-10-16T11:08:31.800Z,1013.25
2018-10-16T11:09:41.502Z,1013.29
2018-10-16T11:10:51.207Z,1013.26
2018-10-16T11:12:00.663Z,1013.24
2018-10-16T11:13:10.631Z,1013.24
2018-10-16T11:14:20.041Z,1013.26
2018-10-16T11:15:30.036Z,1013.22
2018-10-16T11:16:40.231Z,1013.23
2018-10-16T11:17:49.687Z,1013.18
2018-10-16T11:18:59.662Z,1013.16
2018-10-16T11:20:09.645Z,1013.18
2018-10-16T11:21:19.621Z,1013.18
2018-10-16T11:22:29.339Z,1013.18
2018-10-16T11:23:39.329Z,1013.16
2018-10-16T11:24:49.299Z,1013.15
2018-10-16T11:25:59.268Z,1013.17
2018-10-16T11:27:09.087Z,1013.18
2018-10-16T11:28:19.894Z,1013.19
2018-10-16T11:29:29.874Z,1013.2
2018-10-16T11:30:39.779Z,1013.26
2018-10-16T11:31:49.760Z,1013.24
2018-10-16T11:32:59.504Z,1013.18
2018-10-16T11:34:10.077Z,1013.21
2018-10-16T11:35:19.731Z,1013.29
2018-10-16T11:36:29.714Z,1013.25
2018-10-16T11:37:39.717Z,1013.25
2018-10-16T11:38:49.700Z,1013.21
2018-10-16T11:39:59.935Z,1013.25
2018-10-16T11:41:09.915Z,1013.25
2018-10-16T11:42:19.368Z,1013.26
2018-10-16T11:43:29.092Z,1013.15
2018-10-16T11:44:39.083Z,1013.2
2018-10-16T11:45:49.157Z,1013.19
2018-10-16T11:46:59.352Z,1013.21
2018-10-16T11:48:09.338Z,1013.17
2018-10-16T11:49:19.357Z,1013.21
2018-10-16T11:50:29.345Z,1013.1
2018-10-16T11:51:38.798Z,1013.22
2018-10-16T11:52:48.799Z,1013.19
2018-10-16T11:53:58.775Z,1013.19
2018-10-16T11:55:08.769Z,1013.15
2018-10-16T11:56:18.721Z,1013.17
2018-10-16T11:57:28.730Z,1013.19
2018-10-16T11:58:38.701Z,1013.2
2018-10-16T11:59:48.701Z,1013.18
2018-10-16T12:00:58.703Z,1013.24
2018-10-16T12:02:08.742Z,1013.22
2018-10-16T12:03:19.569Z,1013.28
2018-10-16T12:04:29.538Z,1013.31
2018-10-16T12:05:39.245Z,1013.28
2018-10-16T12:06:48.974Z,1013.26
2018-10-16T12:07:59.280Z,1013.24
2018-10-16T12:09:09.746Z,1013.22
2018-10-16T12:10:19.739Z,1013.24
2018-10-16T12:11:29.765Z,1013.24
2018-10-16T12:12:39.763Z,1013.18
2018-10-16T12:13:49.797Z,1013.23
2018-10-16T12:14:59.964Z,1013.15
2018-10-16T12:16:09.944Z,1013.16
2018-10-16T12:17:19.403Z,1013.19
2018-10-16T12:18:29.117Z,1013.2
2018-10-16T12:19:39.090Z,1013.18
2018-10-16T12:20:49.029Z,1013.19
2018-10-16T12:21:59.157Z,1013.17
2018-10-16T12:23:08.876Z,1013.15
2018-10-16T12:24:18.831Z,1013.18
2018-10-16T12:25:28.267Z,1013.14
2018-10-16T12:26:38.450Z,1013.15
2018-10-16T12:27:47.652Z,1013.18
2018-10-16T12:28:57.450Z,1013.16
2018-10-16T12:30:08.095Z,1013.14
2018-10-16T12:31:18.167Z,1013.15
2018-10-16T12:32:28.224Z,1013.11
2018-10-16T12:33:38.210Z,1013.09
2018-10-16T12:34:47.982Z,1013.08
2018-10-16T12:35:57.964Z,1013.07
2018-10-16T12:37:07.515Z,1013.12
2018-10-16T12:38:17.991Z,1013.08
2018-10-16T12:39:28.245Z,1013.06
2018-10-16T12:40:38.343Z,1013.06
2018-10-16T12:41:48.048Z,1013.07
2018-10-16T12:42:57.806Z,1013.05
2018-10-16T12:44:08.323Z,1013.14
2018-10-16T12:45:18.307Z,1013.1
2018-10-16T12:46:28.290Z,1013.13
2018-10-16T12:47:38.010Z,1013.13
2018-10-16T12:48:47.731Z,1013.15
2018-10-16T12:49:57.706Z,1013.14
2018-10-16T12:51:07.917Z,1013.13
2018-10-16T12:52:18.718Z,1013.16
2018-10-16T12:53:28.432Z,1013.11
2018-10-16T12:54:38.427Z,1013.16
2018-10-16T12:55:48.417Z,1013.12
2018-10-16T12:56:58.639Z,1013.16
2018-10-16T12:58:09.021Z,1013.13
2018-10-16T12:59:19.020Z,1013.16
2018-10-16T13:00:28.744Z,1013.14
2018-10-16T13:01:38.215Z,1013.14
2018-10-16T13:02:48.194Z,1013.18
2018-10-16T13:03:58.640Z,1013.17
2018-10-16T13:05:08.410Z,1013.22
2018-10-16T13:06:18.487Z,1013.22
2018-10-16T13:07:28.457Z,1013.19
2018-10-16T13:08:38.408Z,1013.23
2018-10-16T13:09:48.138Z,1013.19
2018-10-16T13:10:57.902Z,1013.22
2018-10-16T13:12:08.226Z,1013.14
2018-10-16T13:13:17.950Z,1013.15
2018-10-16T13:14:27.653Z,1013.15
2018-10-16T13:15:37.622Z,1013.17
2018-10-16T13:16:47.818Z,1013.14
2018-10-16T13:17:58.667Z,1013.18
2018-10-16T13:19:08.410Z,1013.15
2018-10-16T13:20:18.689Z,1013.17
2018-10-16T13:21:28.387Z,1013.17
2018-10-16T13:22:38.360Z,1013.14
2018-10-16T13:23:48.126Z,1013.19
2018-10-16T13:24:58.339Z,1013.2
2018-10-16T13:26:08.376Z,1013.17
2018-10-16T13:27:18.702Z,1013.15
2018-10-16T13:28:28.683Z,1013.13
2018-10-16T13:29:38.556Z,1013.13
2018-10-16T13:30:49.395Z,1013.15
2018-10-16T13:31:59.424Z,1013.15
2018-10-16T13:33:09.957Z,1013.16
2018-10-16T13:34:19.930Z,1013.17
2018-10-16T13:35:29.897Z,1013.19
2018-10-16T13:36:39.885Z,1013.17
2018-10-16T13:37:49.802Z,1013.19
2018-10-16T13:38:59.623Z,1013.21
2018-10-16T13:40:09.390Z,1013.2
2018-10-16T13:41:19.404Z,1013.24
2018-10-16T13:42:29.452Z,1013.21
2018-10-16T13:43:39.497Z,1013.22
2018-10-16T13:44:49.450Z,1013.23
2018-10-16T13:45:59.218Z,1013.22
2018-10-16T13:47:09.669Z,1013.2
2018-10-16T13:48:19.645Z,1013.22
2018-10-16T13:49:29.373Z,1013.19
2018-10-16T13:50:39.093Z,1013.16
2018-10-16T13:51:48.812Z,1013.16
2018-10-16T13:52:58.694Z,1013.18
2018-10-16T13:54:08.408Z,1013.2
2018-10-16T13:55:18.374Z,1013.2
2018-10-16T13:56:28.358Z,1013.22
2018-10-16T13:57:38.145Z,1013.21
2018-10-16T13:58:48.114Z,1013.24
2018-10-16T13:59:58.096Z,1013.25
2018-10-16T14:01:08.063Z,1013.25
2018-10-16T14:02:18.041Z,1013.24
2018-10-16T14:03:27.767Z,1013.21
2018-10-16T14:04:37.471Z,1013.24
2018-10-16T14:05:47.490Z,1013.22
2018-10-16T14:06:57.455Z,1013.22
2018-10-16T14:08:07.458Z,1013.22
2018-10-16T14:09:17.977Z,1013.21